Battle Point — NMBY — position and weather

sailwx.info

Track history (hours):
 
Tides and Currents Weather Stations Pressure Air Temp Water Temp Dewpoint Dewpoint Depression Visibility Wind Speed Wind Dir Waves Ship Positions

Battle Point

Last reported at 2015-Feb-22 02:33 UTC. Time now 2015-Mar-06 04:02 UTC.
Position N 47°45' W 122°44'.
Warning: this ship's position is 12 days out of date.

Length 57 m; draft 3.2 m.

MMSI: 369970254.

Date/timePositionNaut miles runAvg speedWind from/ knotsBaromVisibWave heightAir tempDewpointWater temp
2015-Feb-22 02:33N 47°45' W 122°44'10 9.5
2015-Feb-22 01:33N 47°53' W 122°36'7 7.1
2015-Feb-22 00:33N 47°59' W 122°39'1311.8
2015-Feb-21 23:26N 48°11' W 122°49'1011.6
2015-Feb-21 22:32N 48°21' W 122°46'1212.1
2015-Feb-21 21:33N 48°33' W 122°45'1111.3
2015-Feb-21 20:33N 48°44' W 122°47'1111.4
2015-Feb-21 19:33N 48°50' W 123°02'1212.4
2015-Feb-21 18:33N 48°58' W 123°16'1211.8
2015-Feb-21 17:33N 49°06' W 123°30'1111.5
2015-Feb-21 16:33N 49°12' W 123°45'1211.6
2015-Feb-21 15:32N 49°16' W 124°02'1 0.0
2015-Feb-20 19:29N 49°16' W 124°03'8 8.8
2015-Feb-20 18:32N 49°14' W 123°51'6 5.7
2015-Feb-20 17:33N 49°11' W 123°43'2 1.8
2015-Feb-20 16:33N 49°12' W 123°45'1110.6
2015-Feb-20 15:32N 49°15' W 124°01'2 0.1
2015-Feb-19 23:05N 49°16' W 124°04'2 4.1
2015-Feb-19 22:32N 49°18' W 124°05'4 0.1
2015-Feb-18 20:22N 49°16' W 124°09'  
Track history (hours):
 
Tides and Currents Weather Stations Pressure Air Temp Water Temp Dewpoint Dewpoint Depression Visibility Wind Speed Wind Dir Waves Ship Positions

Battle Point

Last reported at 2015-Feb-22 02:33 UTC. Time now 2015-Mar-06 04:02 UTC.
Position N 47°45' W 122°44'.
Warning: this ship's position is 12 days out of date.

Length 57 m; draft 3.2 m.

MMSI: 369970254.

Date/timePositionNaut miles runAvg speedWind from/ knotsBaromVisibWave heightAir tempDewpointWater temp
2015-Feb-22 02:33N 47°45' W 122°44'10 9.5
2015-Feb-22 01:33N 47°53' W 122°36'7 7.1
2015-Feb-22 00:33N 47°59' W 122°39'1311.8
2015-Feb-21 23:26N 48°11' W 122°49'1011.6
2015-Feb-21 22:32N 48°21' W 122°46'1212.1
2015-Feb-21 21:33N 48°33' W 122°45'1111.3
2015-Feb-21 20:33N 48°44' W 122°47'1111.4
2015-Feb-21 19:33N 48°50' W 123°02'1212.4
2015-Feb-21 18:33N 48°58' W 123°16'1211.8
2015-Feb-21 17:33N 49°06' W 123°30'1111.5
2015-Feb-21 16:33N 49°12' W 123°45'1211.6
2015-Feb-21 15:32N 49°16' W 124°02'1 0.0
2015-Feb-20 19:29N 49°16' W 124°03'8 8.8
2015-Feb-20 18:32N 49°14' W 123°51'6 5.7
2015-Feb-20 17:33N 49°11' W 123°43'2 1.8
2015-Feb-20 16:33N 49°12' W 123°45'1110.6
2015-Feb-20 15:32N 49°15' W 124°01'2 0.1
2015-Feb-19 23:05N 49°16' W 124°04'2 4.1
2015-Feb-19 22:32N 49°18' W 124°05'4 0.1
2015-Feb-18 20:22N 49°16' W 124°09'  

Dump ship's entire track history